sensor_id;sensor_type;location;lat;lon;timestamp;P1;durP1;ratioP1;P2;durP2;ratioP2
16029;SDS011;34770;49.272;11.070;2022-11-10T00:01:14;3.10;;;2.70;;
16029;SDS011;34770;49.272;11.070;2022-11-10T00:03:41;5.47;;;3.38;;
16029;SDS011;34770;49.272;11.070;2022-11-10T00:06:09;4.75;;;2.55;;
16029;SDS011;34770;49.272;11.070;2022-11-10T00:08:37;4.53;;;2.60;;
16029;SDS011;34770;49.272;11.070;2022-11-10T00:11:04;3.58;;;2.40;;
16029;SDS011;34770;49.272;11.070;2022-11-10T00:13:32;5.80;;;2.10;;
16029;SDS011;34770;49.272;11.070;2022-11-10T00:16:21;3.03;;;2.65;;
16029;SDS011;34770;49.272;11.070;2022-11-10T00:19:06;3.45;;;2.40;;
16029;SDS011;34770;49.272;11.070;2022-11-10T00:21:36;2.83;;;2.50;;
16029;SDS011;34770;49.272;11.070;2022-11-10T00:24:02;7.00;;;2.67;;
16029;SDS011;34770;49.272;11.070;2022-11-10T00:26:30;4.00;;;2.53;;
16029;SDS011;34770;49.272;11.070;2022-11-10T00:28:57;4.43;;;2.92;;
16029;SDS011;34770;49.272;11.070;2022-11-10T00:31:27;6.10;;;2.58;;
16029;SDS011;34770;49.272;11.070;2022-11-10T00:33:57;2.95;;;2.75;;
16029;SDS011;34770;49.272;11.070;2022-11-10T00:36:25;4.13;;;2.47;;
16029;SDS011;34770;49.272;11.070;2022-11-10T00:38:51;3.35;;;2.90;;
16029;SDS011;34770;49.272;11.070;2022-11-10T00:41:16;3.72;;;2.50;;
16029;SDS011;34770;49.272;11.070;2022-11-10T00:43:43;3.40;;;2.50;;
16029;SDS011;34770;49.272;11.070;2022-11-10T00:46:09;3.80;;;1.88;;
16029;SDS011;34770;49.272;11.070;2022-11-10T00:48:35;2.35;;;2.15;;
16029;SDS011;34770;49.272;11.070;2022-11-10T00:51:00;5.60;;;3.03;;
16029;SDS011;34770;49.272;11.070;2022-11-10T00:53:26;3.20;;;2.30;;
16029;SDS011;34770;49.272;11.070;2022-11-10T00:55:52;3.88;;;2.63;;
16029;SDS011;34770;49.272;11.070;2022-11-10T00:58:19;4.78;;;2.30;;
16029;SDS011;34770;49.272;11.070;2022-11-10T01:00:44;6.38;;;2.03;;
16029;SDS011;34770;49.272;11.070;2022-11-10T01:03:14;3.42;;;2.10;;
16029;SDS011;34770;49.272;11.070;2022-11-10T01:05:40;2.95;;;2.55;;
16029;SDS011;34770;49.272;11.070;2022-11-10T01:08:07;3.55;;;2.50;;
16029;SDS011;34770;49.272;11.070;2022-11-10T01:10:33;2.55;;;2.35;;
16029;SDS011;34770;49.272;11.070;2022-11-10T01:13:00;3.80;;;2.45;;
16029;SDS011;34770;49.272;11.070;2022-11-10T01:15:25;1.95;;;1.85;;
16029;SDS011;34770;49.272;11.070;2022-11-10T01:17:52;2.42;;;2.20;;
16029;SDS011;34770;49.272;11.070;2022-11-10T01:20:19;5.78;;;2.35;;
16029;SDS011;34770;49.272;11.070;2022-11-10T01:22:45;4.60;;;2.42;;
16029;SDS011;34770;49.272;11.070;2022-11-10T01:25:14;4.57;;;2.92;;
16029;SDS011;34770;49.272;11.070;2022-11-10T01:28:00;5.32;;;3.10;;
16029;SDS011;34770;49.272;11.070;2022-11-10T01:30:30;3.30;;;3.00;;
16029;SDS011;34770;49.272;11.070;2022-11-10T01:32:57;2.85;;;2.63;;
16029;SDS011;34770;49.272;11.070;2022-11-10T01:35:25;4.60;;;2.38;;
16029;SDS011;34770;49.272;11.070;2022-11-10T01:37:52;6.72;;;3.40;;
16029;SDS011;34770;49.272;11.070;2022-11-10T01:40:19;3.63;;;3.33;;
16029;SDS011;34770;49.272;11.070;2022-11-10T01:42:49;7.28;;;3.88;;
16029;SDS011;34770;49.272;11.070;2022-11-10T01:47:57;3.45;;;2.85;;
16029;SDS011;34770;49.272;11.070;2022-11-10T01:50:26;4.32;;;3.10;;
16029;SDS011;34770;49.272;11.070;2022-11-10T01:52:58;6.85;;;3.13;;
16029;SDS011;34770;49.272;11.070;2022-11-10T01:55:27;4.63;;;3.15;;
16029;SDS011;34770;49.272;11.070;2022-11-10T01:57:54;4.97;;;3.40;;
16029;SDS011;34770;49.272;11.070;2022-11-10T02:00:21;5.10;;;3.40;;
16029;SDS011;34770;49.272;11.070;2022-11-10T02:05:25;4.32;;;3.30;;
16029;SDS011;34770;49.272;11.070;2022-11-10T02:07:51;4.28;;;3.28;;
16029;SDS011;34770;49.272;11.070;2022-11-10T02:10:17;4.15;;;2.47;;
16029;SDS011;34770;49.272;11.070;2022-11-10T02:12:45;6.93;;;2.72;;
16029;SDS011;34770;49.272;11.070;2022-11-10T02:15:14;3.30;;;2.85;;
16029;SDS011;34770;49.272;11.070;2022-11-10T02:17:43;5.72;;;2.90;;
16029;SDS011;34770;49.272;11.070;2022-11-10T02:20:13;4.68;;;2.70;;
16029;SDS011;34770;49.272;11.070;2022-11-10T02:22:41;4.60;;;2.83;;
16029;SDS011;34770;49.272;11.070;2022-11-10T02:25:07;4.30;;;3.40;;
16029;SDS011;34770;49.272;11.070;2022-11-10T02:27:33;4.10;;;3.70;;
16029;SDS011;34770;49.272;11.070;2022-11-10T02:30:00;3.72;;;3.28;;
16029;SDS011;34770;49.272;11.070;2022-11-10T02:32:26;3.08;;;2.88;;
16029;SDS011;34770;49.272;11.070;2022-11-10T02:34:52;5.68;;;3.55;;
16029;SDS011;34770;49.272;11.070;2022-11-10T02:37:18;6.80;;;3.60;;
16029;SDS011;34770;49.272;11.070;2022-11-10T02:39:44;7.68;;;3.97;;
16029;SDS011;34770;49.272;11.070;2022-11-10T02:42:10;6.82;;;4.07;;
16029;SDS011;34770;49.272;11.070;2022-11-10T02:44:36;5.30;;;3.72;;
16029;SDS011;34770;49.272;11.070;2022-11-10T02:47:03;3.63;;;3.17;;
16029;SDS011;34770;49.272;11.070;2022-11-10T02:49:29;6.70;;;4.30;;
16029;SDS011;34770;49.272;11.070;2022-11-10T02:51:55;7.30;;;3.83;;
16029;SDS011;34770;49.272;11.070;2022-11-10T02:54:21;4.80;;;3.55;;
16029;SDS011;34770;49.272;11.070;2022-11-10T02:56:47;5.78;;;3.60;;
16029;SDS011;34770;49.272;11.070;2022-11-10T02:59:13;6.75;;;3.70;;
16029;SDS011;34770;49.272;11.070;2022-11-10T03:01:39;5.22;;;3.47;;
16029;SDS011;34770;49.272;11.070;2022-11-10T03:04:05;10.25;;;3.83;;
16029;SDS011;34770;49.272;11.070;2022-11-10T03:06:31;6.95;;;3.67;;
16029;SDS011;34770;49.272;11.070;2022-11-10T03:08:57;5.10;;;3.63;;
16029;SDS011;34770;49.272;11.070;2022-11-10T03:11:23;6.45;;;3.97;;
16029;SDS011;34770;49.272;11.070;2022-11-10T03:13:49;4.40;;;3.63;;
16029;SDS011;34770;49.272;11.070;2022-11-10T03:16:15;4.90;;;3.58;;
16029;SDS011;34770;49.272;11.070;2022-11-10T03:18:41;6.00;;;3.97;;
16029;SDS011;34770;49.272;11.070;2022-11-10T03:21:08;4.70;;;3.75;;
16029;SDS011;34770;49.272;11.070;2022-11-10T03:23:34;4.28;;;3.70;;
16029;SDS011;34770;49.272;11.070;2022-11-10T03:26:04;5.70;;;4.50;;
16029;SDS011;34770;49.272;11.070;2022-11-10T03:28:31;6.55;;;4.57;;
16029;SDS011;34770;49.272;11.070;2022-11-10T03:30:58;5.30;;;4.72;;
16029;SDS011;34770;49.272;11.070;2022-11-10T03:33:24;4.90;;;4.38;;
16029;SDS011;34770;49.272;11.070;2022-11-10T03:35:50;6.75;;;4.18;;
16029;SDS011;34770;49.272;11.070;2022-11-10T03:38:16;7.72;;;4.80;;
16029;SDS011;34770;49.272;11.070;2022-11-10T03:40:42;5.78;;;4.00;;
16029;SDS011;34770;49.272;11.070;2022-11-10T03:43:10;6.03;;;4.78;;
16029;SDS011;34770;49.272;11.070;2022-11-10T03:45:36;7.30;;;4.03;;
16029;SDS011;34770;49.272;11.070;2022-11-10T03:48:02;5.38;;;3.95;;
16029;SDS011;34770;49.272;11.070;2022-11-10T03:50:28;5.35;;;4.20;;
16029;SDS011;34770;49.272;11.070;2022-11-10T03:52:53;4.55;;;4.03;;
16029;SDS011;34770;49.272;11.070;2022-11-10T03:55:19;7.03;;;4.90;;
16029;SDS011;34770;49.272;11.070;2022-11-10T03:57:46;5.10;;;4.60;;
16029;SDS011;34770;49.272;11.070;2022-11-10T04:00:12;6.93;;;4.38;;
16029;SDS011;34770;49.272;11.070;2022-11-10T04:02:38;7.05;;;3.97;;
16029;SDS011;34770;49.272;11.070;2022-11-10T04:05:04;6.00;;;5.35;;
16029;SDS011;34770;49.272;11.070;2022-11-10T04:07:57;9.23;;;5.10;;
16029;SDS011;34770;49.272;11.070;2022-11-10T04:10:44;5.43;;;4.80;;
16029;SDS011;34770;49.272;11.070;2022-11-10T04:13:11;6.55;;;4.80;;
16029;SDS011;34770;49.272;11.070;2022-11-10T04:15:56;6.85;;;4.93;;
16029;SDS011;34770;49.272;11.070;2022-11-10T04:18:28;5.50;;;4.72;;
16029;SDS011;34770;49.272;11.070;2022-11-10T04:20:59;5.38;;;4.85;;
16029;SDS011;34770;49.272;11.070;2022-11-10T04:23:27;11.77;;;5.32;;
16029;SDS011;34770;49.272;11.070;2022-11-10T04:26:00;11.63;;;5.85;;
16029;SDS011;34770;49.272;11.070;2022-11-10T04:28:55;5.22;;;4.72;;
16029;SDS011;34770;49.272;11.070;2022-11-10T04:31:24;5.65;;;5.03;;
16029;SDS011;34770;49.272;11.070;2022-11-10T04:33:52;5.00;;;4.47;;
16029;SDS011;34770;49.272;11.070;2022-11-10T04:36:23;5.60;;;5.00;;
16029;SDS011;34770;49.272;11.070;2022-11-10T04:38:51;8.45;;;6.05;;
16029;SDS011;34770;49.272;11.070;2022-11-10T04:41:19;7.85;;;6.22;;
16029;SDS011;34770;49.272;11.070;2022-11-10T04:43:47;6.88;;;5.60;;
16029;SDS011;34770;49.272;11.070;2022-11-10T04:46:19;7.40;;;5.38;;
16029;SDS011;34770;49.272;11.070;2022-11-10T04:48:50;9.10;;;6.03;;
16029;SDS011;34770;49.272;11.070;2022-11-10T04:51:17;8.35;;;5.57;;
16029;SDS011;34770;49.272;11.070;2022-11-10T04:53:44;10.57;;;5.63;;
16029;SDS011;34770;49.272;11.070;2022-11-10T04:56:12;6.30;;;4.95;;
16029;SDS011;34770;49.272;11.070;2022-11-10T04:58:40;6.68;;;5.53;;
16029;SDS011;34770;49.272;11.070;2022-11-10T05:01:14;6.05;;;5.05;;
16029;SDS011;34770;49.272;11.070;2022-11-10T05:03:43;10.25;;;5.70;;
16029;SDS011;34770;49.272;11.070;2022-11-10T05:06:10;8.00;;;7.07;;
16029;SDS011;34770;49.272;11.070;2022-11-10T05:08:37;7.47;;;5.50;;
16029;SDS011;34770;49.272;11.070;2022-11-10T05:11:06;5.63;;;5.13;;
16029;SDS011;34770;49.272;11.070;2022-11-10T05:13:32;6.60;;;5.07;;
16029;SDS011;34770;49.272;11.070;2022-11-10T05:15:59;6.38;;;5.00;;
16029;SDS011;34770;49.272;11.070;2022-11-10T05:18:25;7.80;;;5.40;;
16029;SDS011;34770;49.272;11.070;2022-11-10T05:20:51;5.80;;;4.95;;
16029;SDS011;34770;49.272;11.070;2022-11-10T05:23:20;6.55;;;5.32;;
16029;SDS011;34770;49.272;11.070;2022-11-10T05:28:40;8.63;;;5.72;;
16029;SDS011;34770;49.272;11.070;2022-11-10T05:31:08;7.53;;;5.57;;
16029;SDS011;34770;49.272;11.070;2022-11-10T05:33:37;6.20;;;5.47;;
16029;SDS011;34770;49.272;11.070;2022-11-10T05:36:04;7.88;;;5.57;;
16029;SDS011;34770;49.272;11.070;2022-11-10T05:38:31;7.82;;;5.72;;
16029;SDS011;34770;49.272;11.070;2022-11-10T05:40:58;6.55;;;5.50;;
16029;SDS011;34770;49.272;11.070;2022-11-10T05:43:24;7.07;;;5.50;;
16029;SDS011;34770;49.272;11.070;2022-11-10T05:45:53;7.47;;;6.30;;
16029;SDS011;34770;49.272;11.070;2022-11-10T05:48:19;7.53;;;5.85;;
16029;SDS011;34770;49.272;11.070;2022-11-10T05:50:45;10.77;;;6.57;;
16029;SDS011;34770;49.272;11.070;2022-11-10T05:53:11;10.23;;;6.13;;
16029;SDS011;34770;49.272;11.070;2022-11-10T05:55:37;8.10;;;5.65;;
16029;SDS011;34770;49.272;11.070;2022-11-10T05:58:07;6.25;;;4.95;;
16029;SDS011;34770;49.272;11.070;2022-11-10T06:00:37;8.05;;;5.55;;
16029;SDS011;34770;49.272;11.070;2022-11-10T06:03:04;8.23;;;5.95;;
16029;SDS011;34770;49.272;11.070;2022-11-10T06:05:33;11.98;;;6.53;;
16029;SDS011;34770;49.272;11.070;2022-11-10T06:08:00;7.03;;;6.20;;
16029;SDS011;34770;49.272;11.070;2022-11-10T06:10:27;7.25;;;6.20;;
16029;SDS011;34770;49.272;11.070;2022-11-10T06:12:54;6.50;;;5.38;;
16029;SDS011;34770;49.272;11.070;2022-11-10T06:15:20;5.30;;;4.80;;
16029;SDS011;34770;49.272;11.070;2022-11-10T06:17:47;6.95;;;5.82;;
16029;SDS011;34770;49.272;11.070;2022-11-10T06:20:13;7.10;;;5.72;;
16029;SDS011;34770;49.272;11.070;2022-11-10T06:22:41;8.88;;;5.68;;
16029;SDS011;34770;49.272;11.070;2022-11-10T06:25:09;9.93;;;5.97;;
16029;SDS011;34770;49.272;11.070;2022-11-10T06:27:35;9.80;;;6.55;;
16029;SDS011;34770;49.272;11.070;2022-11-10T06:30:02;7.82;;;6.28;;
16029;SDS011;34770;49.272;11.070;2022-11-10T06:32:28;8.32;;;6.63;;
16029;SDS011;34770;49.272;11.070;2022-11-10T06:34:54;11.82;;;8.40;;
16029;SDS011;34770;49.272;11.070;2022-11-10T06:37:20;8.75;;;6.82;;
16029;SDS011;34770;49.272;11.070;2022-11-10T06:39:46;6.63;;;6.03;;
16029;SDS011;34770;49.272;11.070;2022-11-10T06:42:12;9.13;;;5.85;;
16029;SDS011;34770;49.272;11.070;2022-11-10T06:44:38;8.00;;;5.88;;
16029;SDS011;34770;49.272;11.070;2022-11-10T06:47:04;8.15;;;5.53;;
16029;SDS011;34770;49.272;11.070;2022-11-10T06:49:30;6.95;;;6.10;;
16029;SDS011;34770;49.272;11.070;2022-11-10T06:51:58;7.30;;;6.00;;
16029;SDS011;34770;49.272;11.070;2022-11-10T06:54:24;7.57;;;5.95;;
16029;SDS011;34770;49.272;11.070;2022-11-10T06:56:51;7.22;;;6.47;;
16029;SDS011;34770;49.272;11.070;2022-11-10T06:59:17;7.60;;;6.00;;
16029;SDS011;34770;49.272;11.070;2022-11-10T07:01:43;10.00;;;6.60;;
16029;SDS011;34770;49.272;11.070;2022-11-10T07:04:11;7.80;;;6.63;;
16029;SDS011;34770;49.272;11.070;2022-11-10T07:09:26;14.18;;;9.23;;
16029;SDS011;34770;49.272;11.070;2022-11-10T07:12:03;13.93;;;8.38;;
16029;SDS011;34770;49.272;11.070;2022-11-10T07:27:35;15.67;;;10.47;;
16029;SDS011;34770;49.272;11.070;2022-11-10T07:35:23;20.88;;;12.77;;
16029;SDS011;34770;49.272;11.070;2022-11-10T07:38:10;18.40;;;11.00;;
16029;SDS011;34770;49.272;11.070;2022-11-10T07:43:23;20.48;;;12.25;;
16029;SDS011;34770;49.272;11.070;2022-11-10T07:45:50;18.83;;;11.45;;
16029;SDS011;34770;49.272;11.070;2022-11-10T07:48:16;14.13;;;10.50;;
16029;SDS011;34770;49.272;11.070;2022-11-10T07:50:43;18.98;;;11.68;;
16029;SDS011;34770;49.272;11.070;2022-11-10T07:53:11;15.63;;;10.68;;
16029;SDS011;34770;49.272;11.070;2022-11-10T07:55:39;20.27;;;12.05;;
16029;SDS011;34770;49.272;11.070;2022-11-10T07:58:07;19.70;;;11.38;;
16029;SDS011;34770;49.272;11.070;2022-11-10T08:00:34;15.63;;;11.55;;
16029;SDS011;34770;49.272;11.070;2022-11-10T08:03:03;13.15;;;10.50;;
16029;SDS011;34770;49.272;11.070;2022-11-10T08:05:29;15.52;;;11.90;;
16029;SDS011;34770;49.272;11.070;2022-11-10T08:07:56;18.05;;;10.68;;
16029;SDS011;34770;49.272;11.070;2022-11-10T08:10:21;19.73;;;11.88;;
16029;SDS011;34770;49.272;11.070;2022-11-10T08:12:54;16.00;;;11.75;;
16029;SDS011;34770;49.272;11.070;2022-11-10T08:15:21;14.32;;;10.02;;
16029;SDS011;34770;49.272;11.070;2022-11-10T08:17:48;13.73;;;11.00;;
16029;SDS011;34770;49.272;11.070;2022-11-10T08:20:16;14.65;;;9.25;;
16029;SDS011;34770;49.272;11.070;2022-11-10T08:22:42;14.55;;;10.02;;
16029;SDS011;34770;49.272;11.070;2022-11-10T08:25:08;14.32;;;10.13;;
16029;SDS011;34770;49.272;11.070;2022-11-10T08:27:34;15.60;;;10.50;;
16029;SDS011;34770;49.272;11.070;2022-11-10T08:29:59;12.55;;;10.00;;
16029;SDS011;34770;49.272;11.070;2022-11-10T08:32:25;14.07;;;8.88;;
16029;SDS011;34770;49.272;11.070;2022-11-10T08:34:51;16.33;;;10.85;;
16029;SDS011;34770;49.272;11.070;2022-11-10T08:37:17;15.20;;;9.15;;
16029;SDS011;34770;49.272;11.070;2022-11-10T08:39:42;12.43;;;8.35;;
16029;SDS011;34770;49.272;11.070;2022-11-10T08:42:08;11.73;;;7.70;;
16029;SDS011;34770;49.272;11.070;2022-11-10T08:44:34;11.07;;;8.57;;
16029;SDS011;34770;49.272;11.070;2022-11-10T08:46:59;14.70;;;8.30;;
16029;SDS011;34770;49.272;11.070;2022-11-10T08:49:25;16.35;;;8.07;;
16029;SDS011;34770;49.272;11.070;2022-11-10T08:51:50;9.30;;;7.45;;
16029;SDS011;34770;49.272;11.070;2022-11-10T08:54:16;10.23;;;8.25;;
16029;SDS011;34770;49.272;11.070;2022-11-10T08:56:42;10.35;;;7.60;;
16029;SDS011;34770;49.272;11.070;2022-11-10T08:59:09;14.18;;;8.82;;
16029;SDS011;34770;49.272;11.070;2022-11-10T09:01:34;18.35;;;9.68;;
16029;SDS011;34770;49.272;11.070;2022-11-10T09:04:00;14.82;;;9.20;;
16029;SDS011;34770;49.272;11.070;2022-11-10T09:06:25;11.90;;;8.15;;
16029;SDS011;34770;49.272;11.070;2022-11-10T09:08:51;10.63;;;7.90;;
16029;SDS011;34770;49.272;11.070;2022-11-10T09:11:16;18.13;;;12.45;;
16029;SDS011;34770;49.272;11.070;2022-11-10T09:13:42;13.25;;;9.82;;
16029;SDS011;34770;49.272;11.070;2022-11-10T09:16:08;13.68;;;9.05;;
16029;SDS011;34770;49.272;11.070;2022-11-10T09:18:33;37.17;;;21.85;;
16029;SDS011;34770;49.272;11.070;2022-11-10T09:21:01;62.92;;;38.22;;
16029;SDS011;34770;49.272;11.070;2022-11-10T09:23:27;19.33;;;11.82;;
16029;SDS011;34770;49.272;11.070;2022-11-10T09:25:53;18.13;;;12.98;;
16029;SDS011;34770;49.272;11.070;2022-11-10T09:28:20;17.80;;;14.30;;
16029;SDS011;34770;49.272;11.070;2022-11-10T09:30:47;14.60;;;9.88;;
16029;SDS011;34770;49.272;11.070;2022-11-10T09:33:14;10.05;;;8.25;;
16029;SDS011;34770;49.272;11.070;2022-11-10T09:35:42;24.40;;;9.38;;
16029;SDS011;34770;49.272;11.070;2022-11-10T09:38:08;10.68;;;8.15;;
16029;SDS011;34770;49.272;11.070;2022-11-10T09:43:53;8.55;;;6.35;;
16029;SDS011;34770;49.272;11.070;2022-11-10T09:46:26;12.27;;;5.07;;
16029;SDS011;34770;49.272;11.070;2022-11-10T09:49:00;5.28;;;4.22;;
16029;SDS011;34770;49.272;11.070;2022-11-10T09:51:47;6.80;;;4.28;;
16029;SDS011;34770;49.272;11.070;2022-11-10T09:54:21;8.10;;;4.68;;
16029;SDS011;34770;49.272;11.070;2022-11-10T09:57:00;8.23;;;4.13;;
16029;SDS011;34770;49.272;11.070;2022-11-10T09:59:28;7.68;;;4.32;;
16029;SDS011;34770;49.272;11.070;2022-11-10T10:01:58;8.90;;;4.22;;
16029;SDS011;34770;49.272;11.070;2022-11-10T10:04:35;9.38;;;3.72;;
16029;SDS011;34770;49.272;11.070;2022-11-10T10:07:25;5.72;;;3.65;;
16029;SDS011;34770;49.272;11.070;2022-11-10T10:15:28;5.78;;;3.47;;
16029;SDS011;34770;49.272;11.070;2022-11-10T10:18:16;8.85;;;4.13;;
16029;SDS011;34770;49.272;11.070;2022-11-10T10:23:59;4.88;;;4.13;;
16029;SDS011;34770;49.272;11.070;2022-11-10T10:52:24;4.75;;;3.05;;
16029;SDS011;34770;49.272;11.070;2022-11-10T10:55:01;9.73;;;4.28;;
16029;SDS011;34770;49.272;11.070;2022-11-10T11:02:42;4.45;;;3.25;;
16029;SDS011;34770;49.272;11.070;2022-11-10T11:05:13;8.40;;;2.88;;
16029;SDS011;34770;49.272;11.070;2022-11-10T11:07:56;4.93;;;3.35;;
16029;SDS011;34770;49.272;11.070;2022-11-10T11:10:32;9.55;;;4.18;;
16029;SDS011;34770;49.272;11.070;2022-11-10T11:16:05;6.88;;;3.08;;
16029;SDS011;34770;49.272;11.070;2022-11-10T11:18:33;5.78;;;3.13;;
16029;SDS011;34770;49.272;11.070;2022-11-10T11:23:37;7.45;;;2.95;;
16029;SDS011;34770;49.272;11.070;2022-11-10T11:34:57;6.55;;;2.13;;
16029;SDS011;34770;49.272;11.070;2022-11-10T11:37:34;6.05;;;2.13;;
16029;SDS011;34770;49.272;11.070;2022-11-10T11:40:29;6.22;;;2.38;;
16029;SDS011;34770;49.272;11.070;2022-11-10T11:51:32;4.50;;;2.00;;
16029;SDS011;34770;49.272;11.070;2022-11-10T11:56:55;6.57;;;2.42;;
16029;SDS011;34770;49.272;11.070;2022-11-10T12:05:01;3.25;;;2.08;;
16029;SDS011;34770;49.272;11.070;2022-11-10T12:15:53;4.22;;;2.25;;
16029;SDS011;34770;49.272;11.070;2022-11-10T12:32:08;3.75;;;2.38;;
16029;SDS011;34770;49.272;11.070;2022-11-10T12:34:46;3.38;;;1.77;;
16029;SDS011;34770;49.272;11.070;2022-11-10T12:37:31;5.65;;;1.90;;
16029;SDS011;34770;49.272;11.070;2022-11-10T12:40:13;3.40;;;1.83;;
16029;SDS011;34770;49.272;11.070;2022-11-10T12:42:46;2.40;;;1.75;;
16029;SDS011;34770;49.272;11.070;2022-11-10T12:45:39;4.00;;;2.20;;
16029;SDS011;34770;49.272;11.070;2022-11-10T12:48:13;3.30;;;2.05;;
16029;SDS011;34770;49.272;11.070;2022-11-10T12:53:33;2.70;;;1.80;;
16029;SDS011;34770;49.272;11.070;2022-11-10T12:56:20;4.63;;;1.67;;
16029;SDS011;34770;49.272;11.070;2022-11-10T13:01:49;3.25;;;2.15;;
16029;SDS011;34770;49.272;11.070;2022-11-10T13:04:21;4.82;;;1.60;;
16029;SDS011;34770;49.272;11.070;2022-11-10T13:09:34;4.45;;;1.45;;
16029;SDS011;34770;49.272;11.070;2022-11-10T13:31:03;3.03;;;1.30;;
16029;SDS011;34770;49.272;11.070;2022-11-10T13:41:56;6.63;;;2.05;;
16029;SDS011;34770;49.272;11.070;2022-11-10T13:44:26;3.67;;;1.40;;
16029;SDS011;34770;49.272;11.070;2022-11-10T13:47:09;7.35;;;1.60;;
16029;SDS011;34770;49.272;11.070;2022-11-10T13:53:40;4.63;;;1.55;;
16029;SDS011;34770;49.272;11.070;2022-11-10T13:58:56;5.85;;;2.05;;
16029;SDS011;34770;49.272;11.070;2022-11-10T14:01:23;1.92;;;1.33;;
16029;SDS011;34770;49.272;11.070;2022-11-10T14:04:01;4.68;;;1.55;;
16029;SDS011;34770;49.272;11.070;2022-11-10T14:06:29;8.80;;;1.70;;
16029;SDS011;34770;49.272;11.070;2022-11-10T14:09:20;1.75;;;1.10;;
16029;SDS011;34770;49.272;11.070;2022-11-10T14:11:58;5.65;;;1.90;;
16029;SDS011;34770;49.272;11.070;2022-11-10T14:14:30;8.60;;;3.08;;
16029;SDS011;34770;49.272;11.070;2022-11-10T14:17:13;4.97;;;1.75;;
16029;SDS011;34770;49.272;11.070;2022-11-10T14:19:43;1.73;;;1.20;;
16029;SDS011;34770;49.272;11.070;2022-11-10T14:25:04;6.13;;;2.00;;
16029;SDS011;34770;49.272;11.070;2022-11-10T14:27:41;3.38;;;1.30;;
16029;SDS011;34770;49.272;11.070;2022-11-10T14:30:29;5.35;;;1.50;;
16029;SDS011;34770;49.272;11.070;2022-11-10T14:32:58;6.28;;;3.10;;
16029;SDS011;34770;49.272;11.070;2022-11-10T14:35:34;2.17;;;1.27;;
16029;SDS011;34770;49.272;11.070;2022-11-10T14:38:18;8.82;;;2.20;;
16029;SDS011;34770;49.272;11.070;2022-11-10T14:40:49;1.63;;;1.00;;
16029;SDS011;34770;49.272;11.070;2022-11-10T14:43:28;4.80;;;1.52;;
16029;SDS011;34770;49.272;11.070;2022-11-10T14:45:55;1.77;;;1.05;;
16029;SDS011;34770;49.272;11.070;2022-11-10T14:48:22;2.97;;;1.10;;
16029;SDS011;34770;49.272;11.070;2022-11-10T14:50:50;3.58;;;1.30;;
16029;SDS011;34770;49.272;11.070;2022-11-10T14:55:49;2.83;;;1.27;;
16029;SDS011;34770;49.272;11.070;2022-11-10T14:58:22;3.50;;;1.23;;
16029;SDS011;34770;49.272;11.070;2022-11-10T15:01:05;2.03;;;1.40;;
16029;SDS011;34770;49.272;11.070;2022-11-10T15:03:44;3.35;;;1.30;;
16029;SDS011;34770;49.272;11.070;2022-11-10T15:06:11;3.10;;;1.35;;
16029;SDS011;34770;49.272;11.070;2022-11-10T15:08:38;6.03;;;1.70;;
16029;SDS011;34770;49.272;11.070;2022-11-10T15:11:05;5.28;;;1.48;;
16029;SDS011;34770;49.272;11.070;2022-11-10T15:13:32;5.03;;;1.38;;
16029;SDS011;34770;49.272;11.070;2022-11-10T15:21:51;3.35;;;1.52;;
16029;SDS011;34770;49.272;11.070;2022-11-10T15:24:18;2.45;;;2.13;;
16029;SDS011;34770;49.272;11.070;2022-11-10T15:26:45;4.70;;;1.95;;
16029;SDS011;34770;49.272;11.070;2022-11-10T15:29:17;1.90;;;1.60;;
16029;SDS011;34770;49.272;11.070;2022-11-10T15:31:45;4.65;;;2.17;;
16029;SDS011;34770;49.272;11.070;2022-11-10T15:35:05;4.60;;;1.67;;
16029;SDS011;34770;49.272;11.070;2022-11-10T15:37:09;2.90;;;1.83;;
16029;SDS011;34770;49.272;11.070;2022-11-10T15:39:45;3.90;;;2.47;;
16029;SDS011;34770;49.272;11.070;2022-11-10T15:42:12;7.78;;;2.83;;
16029;SDS011;34770;49.272;11.070;2022-11-10T15:44:43;6.13;;;1.55;;
16029;SDS011;34770;49.272;11.070;2022-11-10T15:47:10;2.45;;;1.40;;
16029;SDS011;34770;49.272;11.070;2022-11-10T15:49:37;3.97;;;1.85;;
16029;SDS011;34770;49.272;11.070;2022-11-10T15:52:05;3.88;;;1.67;;
16029;SDS011;34770;49.272;11.070;2022-11-10T15:54:38;3.38;;;1.60;;
16029;SDS011;34770;49.272;11.070;2022-11-10T15:57:09;2.70;;;1.92;;
16029;SDS011;34770;49.272;11.070;2022-11-10T15:59:37;2.95;;;1.83;;
16029;SDS011;34770;49.272;11.070;2022-11-10T16:02:08;1.88;;;1.60;;
16029;SDS011;34770;49.272;11.070;2022-11-10T16:04:40;4.50;;;2.08;;
16029;SDS011;34770;49.272;11.070;2022-11-10T16:07:07;4.28;;;1.85;;
16029;SDS011;34770;49.272;11.070;2022-11-10T16:09:33;4.50;;;2.00;;
16029;SDS011;34770;49.272;11.070;2022-11-10T16:11:59;4.00;;;1.67;;
16029;SDS011;34770;49.272;11.070;2022-11-10T16:14:24;3.03;;;1.77;;
16029;SDS011;34770;49.272;11.070;2022-11-10T16:16:50;8.35;;;2.55;;
16029;SDS011;34770;49.272;11.070;2022-11-10T16:19:15;4.70;;;1.88;;
16029;SDS011;34770;49.272;11.070;2022-11-10T16:21:41;3.42;;;1.80;;
16029;SDS011;34770;49.272;11.070;2022-11-10T16:24:07;2.85;;;2.38;;
16029;SDS011;34770;49.272;11.070;2022-11-10T16:26:33;5.07;;;1.83;;
16029;SDS011;34770;49.272;11.070;2022-11-10T16:28:59;5.63;;;1.50;;
16029;SDS011;34770;49.272;11.070;2022-11-10T16:31:25;3.20;;;1.60;;
16029;SDS011;34770;49.272;11.070;2022-11-10T16:33:51;5.93;;;2.17;;
16029;SDS011;34770;49.272;11.070;2022-11-10T16:36:24;1.90;;;1.75;;
16029;SDS011;34770;49.272;11.070;2022-11-10T16:38:52;3.83;;;1.80;;
16029;SDS011;34770;49.272;11.070;2022-11-10T16:41:19;6.35;;;3.30;;
16029;SDS011;34770;49.272;11.070;2022-11-10T16:43:44;5.22;;;2.10;;
16029;SDS011;34770;49.272;11.070;2022-11-10T16:46:17;2.28;;;2.08;;
16029;SDS011;34770;49.272;11.070;2022-11-10T16:48:45;3.28;;;2.20;;
16029;SDS011;34770;49.272;11.070;2022-11-10T16:51:12;6.28;;;3.50;;
16029;SDS011;34770;49.272;11.070;2022-11-10T16:53:39;8.30;;;4.25;;
16029;SDS011;34770;49.272;11.070;2022-11-10T16:56:05;9.23;;;5.13;;
16029;SDS011;34770;49.272;11.070;2022-11-10T16:58:36;6.75;;;4.22;;
16029;SDS011;34770;49.272;11.070;2022-11-10T17:01:02;7.28;;;4.97;;
16029;SDS011;34770;49.272;11.070;2022-11-10T17:03:33;9.48;;;5.60;;
16029;SDS011;34770;49.272;11.070;2022-11-10T17:06:01;12.00;;;6.00;;
16029;SDS011;34770;49.272;11.070;2022-11-10T17:08:29;7.95;;;5.20;;
16029;SDS011;34770;49.272;11.070;2022-11-10T17:10:56;9.60;;;6.57;;
16029;SDS011;34770;49.272;11.070;2022-11-10T17:13:22;7.15;;;5.53;;
16029;SDS011;34770;49.272;11.070;2022-11-10T17:15:48;8.90;;;5.00;;
16029;SDS011;34770;49.272;11.070;2022-11-10T17:18:17;6.60;;;4.43;;
16029;SDS011;34770;49.272;11.070;2022-11-10T17:20:48;6.35;;;3.53;;
16029;SDS011;34770;49.272;11.070;2022-11-10T17:23:16;11.52;;;8.65;;
16029;SDS011;34770;49.272;11.070;2022-11-10T17:25:44;14.63;;;9.48;;
16029;SDS011;34770;49.272;11.070;2022-11-10T17:28:14;10.07;;;4.75;;
16029;SDS011;34770;49.272;11.070;2022-11-10T17:30:40;7.32;;;4.38;;
16029;SDS011;34770;49.272;11.070;2022-11-10T17:33:06;7.32;;;5.53;;
16029;SDS011;34770;49.272;11.070;2022-11-10T17:35:54;18.80;;;11.63;;
16029;SDS011;34770;49.272;11.070;2022-11-10T17:40:55;13.00;;;9.38;;
16029;SDS011;34770;49.272;11.070;2022-11-10T17:43:21;9.52;;;7.05;;
16029;SDS011;34770;49.272;11.070;2022-11-10T17:45:47;12.18;;;8.25;;
16029;SDS011;34770;49.272;11.070;2022-11-10T17:48:13;16.92;;;10.90;;